sensor_id;sensor_type;location;lat;lon;timestamp;temperature;humidity
32614;DHT22;19031;51.400;6.770;2023-02-22T00:00:18;6.80;99.90
32614;DHT22;19031;51.400;6.770;2023-02-22T00:02:52;6.70;99.90
32614;DHT22;19031;51.400;6.770;2023-02-22T00:05:25;6.50;99.90
32614;DHT22;19031;51.400;6.770;2023-02-22T00:07:51;6.50;99.90
32614;DHT22;19031;51.400;6.770;2023-02-22T00:10:17;6.40;99.90
32614;DHT22;19031;51.400;6.770;2023-02-22T00:12:47;6.20;99.90
32614;DHT22;19031;51.400;6.770;2023-02-22T00:15:14;6.20;99.90
32614;DHT22;19031;51.400;6.770;2023-02-22T00:17:41;6.00;99.90
32614;DHT22;19031;51.400;6.770;2023-02-22T00:20:08;5.90;99.90
32614;DHT22;19031;51.400;6.770;2023-02-22T00:22:39;5.80;99.90
32614;DHT22;19031;51.400;6.770;2023-02-22T00:25:05;5.70;99.90
32614;DHT22;19031;51.400;6.770;2023-02-22T00:27:31;5.60;99.90
32614;DHT22;19031;51.400;6.770;2023-02-22T00:29:56;5.50;99.90
32614;DHT22;19031;51.400;6.770;2023-02-22T00:32:23;5.40;99.90
32614;DHT22;19031;51.400;6.770;2023-02-22T00:34:52;5.40;99.90
32614;DHT22;19031;51.400;6.770;2023-02-22T00:37:19;5.40;99.90
32614;DHT22;19031;51.400;6.770;2023-02-22T00:39:49;5.30;99.90
32614;DHT22;19031;51.400;6.770;2023-02-22T00:42:16;5.20;99.90
32614;DHT22;19031;51.400;6.770;2023-02-22T00:44:42;5.10;99.90
32614;DHT22;19031;51.400;6.770;2023-02-22T00:47:07;5.00;99.90
32614;DHT22;19031;51.400;6.770;2023-02-22T00:49:33;4.90;99.90
32614;DHT22;19031;51.400;6.770;2023-02-22T00:51:59;4.80;99.90
32614;DHT22;19031;51.400;6.770;2023-02-22T00:54:25;4.70;99.90
32614;DHT22;19031;51.400;6.770;2023-02-22T00:56:50;4.80;99.90
32614;DHT22;19031;51.400;6.770;2023-02-22T00:59:16;4.70;99.90
32614;DHT22;19031;51.400;6.770;2023-02-22T01:01:42;4.60;99.90
32614;DHT22;19031;51.400;6.770;2023-02-22T01:04:08;4.60;99.90
32614;DHT22;19031;51.400;6.770;2023-02-22T01:06:34;4.50;99.90
32614;DHT22;19031;51.400;6.770;2023-02-22T01:09:00;4.40;99.90
32614;DHT22;19031;51.400;6.770;2023-02-22T01:11:27;4.40;99.90
32614;DHT22;19031;51.400;6.770;2023-02-22T01:13:53;4.40;99.90
32614;DHT22;19031;51.400;6.770;2023-02-22T01:16:20;4.30;99.90
32614;DHT22;19031;51.400;6.770;2023-02-22T01:18:45;4.20;99.90
32614;DHT22;19031;51.400;6.770;2023-02-22T01:21:11;4.30;99.90
32614;DHT22;19031;51.400;6.770;2023-02-22T01:23:37;4.20;99.90
32614;DHT22;19031;51.400;6.770;2023-02-22T01:26:02;4.20;99.90
32614;DHT22;19031;51.400;6.770;2023-02-22T01:28:30;4.10;99.90
32614;DHT22;19031;51.400;6.770;2023-02-22T01:30:56;4.20;99.90
32614;DHT22;19031;51.400;6.770;2023-02-22T01:33:22;4.30;99.90
32614;DHT22;19031;51.400;6.770;2023-02-22T01:35:47;4.20;99.90
32614;DHT22;19031;51.400;6.770;2023-02-22T01:38:15;4.20;99.90
32614;DHT22;19031;51.400;6.770;2023-02-22T01:40:45;4.10;99.90
32614;DHT22;19031;51.400;6.770;2023-02-22T01:45:47;4.10;99.90
32614;DHT22;19031;51.400;6.770;2023-02-22T01:48:34;4.10;99.90
32614;DHT22;19031;51.400;6.770;2023-02-22T01:53:59;3.90;99.90
32614;DHT22;19031;51.400;6.770;2023-02-22T01:56:27;3.90;99.90
32614;DHT22;19031;51.400;6.770;2023-02-22T01:58:58;4.00;99.90
32614;DHT22;19031;51.400;6.770;2023-02-22T02:01:26;4.10;99.90
32614;DHT22;19031;51.400;6.770;2023-02-22T02:03:56;4.20;99.90
32614;DHT22;19031;51.400;6.770;2023-02-22T02:06:22;4.20;99.90
32614;DHT22;19031;51.400;6.770;2023-02-22T02:09:11;4.30;99.90
32614;DHT22;19031;51.400;6.770;2023-02-22T02:11:39;4.40;99.90
32614;DHT22;19031;51.400;6.770;2023-02-22T02:14:07;4.50;99.90
32614;DHT22;19031;51.400;6.770;2023-02-22T02:16:51;4.50;99.90
32614;DHT22;19031;51.400;6.770;2023-02-22T02:28:07;4.80;99.90
32614;DHT22;19031;51.400;6.770;2023-02-22T02:31:20;4.90;99.90
32614;DHT22;19031;51.400;6.770;2023-02-22T02:36:46;4.90;99.90
32614;DHT22;19031;51.400;6.770;2023-02-22T02:41:53;4.90;99.90
32614;DHT22;19031;51.400;6.770;2023-02-22T02:44:43;4.90;99.90
32614;DHT22;19031;51.400;6.770;2023-02-22T02:47:16;5.00;99.90
32614;DHT22;19031;51.400;6.770;2023-02-22T02:50:04;5.00;99.90
32614;DHT22;19031;51.400;6.770;2023-02-22T02:52:33;5.10;99.90
32614;DHT22;19031;51.400;6.770;2023-02-22T02:55:02;5.10;99.90
32614;DHT22;19031;51.400;6.770;2023-02-22T02:57:28;5.10;99.90
32614;DHT22;19031;51.400;6.770;2023-02-22T02:59:53;5.10;99.90
32614;DHT22;19031;51.400;6.770;2023-02-22T03:10:52;5.30;99.90
32614;DHT22;19031;51.400;6.770;2023-02-22T03:13:32;5.20;99.90
32614;DHT22;19031;51.400;6.770;2023-02-22T03:16:14;5.30;99.90
32614;DHT22;19031;51.400;6.770;2023-02-22T03:19:05;5.40;99.90
32614;DHT22;19031;51.400;6.770;2023-02-22T03:21:49;5.40;99.90
32614;DHT22;19031;51.400;6.770;2023-02-22T03:27:27;5.40;99.90
32614;DHT22;19031;51.400;6.770;2023-02-22T03:30:00;5.40;99.90
32614;DHT22;19031;51.400;6.770;2023-02-22T03:32:31;5.30;99.90
32614;DHT22;19031;51.400;6.770;2023-02-22T03:35:09;5.50;99.90
32614;DHT22;19031;51.400;6.770;2023-02-22T03:37:39;5.40;99.90
32614;DHT22;19031;51.400;6.770;2023-02-22T03:40:11;5.50;99.90
32614;DHT22;19031;51.400;6.770;2023-02-22T03:42:41;5.60;99.90
32614;DHT22;19031;51.400;6.770;2023-02-22T03:45:08;5.60;99.90
32614;DHT22;19031;51.400;6.770;2023-02-22T03:47:40;5.70;99.90
32614;DHT22;19031;51.400;6.770;2023-02-22T03:50:19;5.60;99.90
32614;DHT22;19031;51.400;6.770;2023-02-22T03:52:45;5.60;99.90
32614;DHT22;19031;51.400;6.770;2023-02-22T03:55:13;5.70;99.90
32614;DHT22;19031;51.400;6.770;2023-02-22T03:57:45;5.70;99.90
32614;DHT22;19031;51.400;6.770;2023-02-22T04:00:14;5.70;99.90
32614;DHT22;19031;51.400;6.770;2023-02-22T04:02:41;5.70;99.90
32614;DHT22;19031;51.400;6.770;2023-02-22T04:05:07;5.70;99.90
32614;DHT22;19031;51.400;6.770;2023-02-22T04:07:33;5.60;99.90
32614;DHT22;19031;51.400;6.770;2023-02-22T04:09:58;5.70;99.90
32614;DHT22;19031;51.400;6.770;2023-02-22T04:12:26;5.70;99.90
32614;DHT22;19031;51.400;6.770;2023-02-22T04:14:52;5.70;99.90
32614;DHT22;19031;51.400;6.770;2023-02-22T04:17:18;5.70;99.90
32614;DHT22;19031;51.400;6.770;2023-02-22T04:19:43;5.80;99.90
32614;DHT22;19031;51.400;6.770;2023-02-22T04:22:10;5.70;99.90
32614;DHT22;19031;51.400;6.770;2023-02-22T04:24:36;5.80;99.90
32614;DHT22;19031;51.400;6.770;2023-02-22T04:27:01;5.70;99.90
32614;DHT22;19031;51.400;6.770;2023-02-22T04:29:28;5.70;99.90
32614;DHT22;19031;51.400;6.770;2023-02-22T04:31:54;5.70;99.90
32614;DHT22;19031;51.400;6.770;2023-02-22T04:34:20;5.80;99.90
32614;DHT22;19031;51.400;6.770;2023-02-22T04:36:46;5.80;99.90
32614;DHT22;19031;51.400;6.770;2023-02-22T04:39:11;5.80;99.90
32614;DHT22;19031;51.400;6.770;2023-02-22T04:41:37;5.80;99.90
32614;DHT22;19031;51.400;6.770;2023-02-22T04:44:02;5.80;99.90
32614;DHT22;19031;51.400;6.770;2023-02-22T04:46:28;5.70;99.90
32614;DHT22;19031;51.400;6.770;2023-02-22T04:48:54;5.70;99.90
32614;DHT22;19031;51.400;6.770;2023-02-22T04:51:19;5.70;99.90
32614;DHT22;19031;51.400;6.770;2023-02-22T04:53:45;5.70;99.90
32614;DHT22;19031;51.400;6.770;2023-02-22T04:56:11;5.70;99.90
32614;DHT22;19031;51.400;6.770;2023-02-22T04:58:36;5.70;99.90
32614;DHT22;19031;51.400;6.770;2023-02-22T05:01:02;5.70;99.90
32614;DHT22;19031;51.400;6.770;2023-02-22T05:03:28;5.70;99.90
32614;DHT22;19031;51.400;6.770;2023-02-22T05:05:54;5.70;99.90
32614;DHT22;19031;51.400;6.770;2023-02-22T05:08:19;5.70;99.90
32614;DHT22;19031;51.400;6.770;2023-02-22T05:10:45;5.70;99.90
32614;DHT22;19031;51.400;6.770;2023-02-22T05:13:11;5.80;99.90
32614;DHT22;19031;51.400;6.770;2023-02-22T05:15:36;5.80;99.90
32614;DHT22;19031;51.400;6.770;2023-02-22T05:18:02;5.70;99.90
32614;DHT22;19031;51.400;6.770;2023-02-22T05:20:33;5.80;99.90
32614;DHT22;19031;51.400;6.770;2023-02-22T05:23:00;5.90;99.90
32614;DHT22;19031;51.400;6.770;2023-02-22T05:25:26;5.90;99.90
32614;DHT22;19031;51.400;6.770;2023-02-22T05:27:58;5.90;99.90
32614;DHT22;19031;51.400;6.770;2023-02-22T05:30:31;5.90;99.90
32614;DHT22;19031;51.400;6.770;2023-02-22T05:32:57;5.90;99.90
32614;DHT22;19031;51.400;6.770;2023-02-22T05:35:24;6.00;99.90
32614;DHT22;19031;51.400;6.770;2023-02-22T05:37:50;6.00;99.90
32614;DHT22;19031;51.400;6.770;2023-02-22T05:40:20;6.00;99.90
32614;DHT22;19031;51.400;6.770;2023-02-22T05:42:47;5.90;99.90
32614;DHT22;19031;51.400;6.770;2023-02-22T05:45:14;5.90;99.90
32614;DHT22;19031;51.400;6.770;2023-02-22T05:47:40;5.90;99.90
32614;DHT22;19031;51.400;6.770;2023-02-22T05:50:06;5.90;99.90
32614;DHT22;19031;51.400;6.770;2023-02-22T05:52:32;5.80;99.90
32614;DHT22;19031;51.400;6.770;2023-02-22T05:54:57;5.80;99.90
32614;DHT22;19031;51.400;6.770;2023-02-22T05:57:23;6.00;99.90
32614;DHT22;19031;51.400;6.770;2023-02-22T05:59:48;5.90;99.90
32614;DHT22;19031;51.400;6.770;2023-02-22T06:02:14;6.00;99.90
32614;DHT22;19031;51.400;6.770;2023-02-22T06:04:43;6.00;99.90
32614;DHT22;19031;51.400;6.770;2023-02-22T06:07:09;5.90;99.90
32614;DHT22;19031;51.400;6.770;2023-02-22T06:09:34;5.90;99.90
32614;DHT22;19031;51.400;6.770;2023-02-22T06:12:00;6.00;99.90
32614;DHT22;19031;51.400;6.770;2023-02-22T06:14:25;5.90;99.90
32614;DHT22;19031;51.400;6.770;2023-02-22T06:16:55;6.00;99.90
32614;DHT22;19031;51.400;6.770;2023-02-22T06:19:21;6.00;99.90
32614;DHT22;19031;51.400;6.770;2023-02-22T06:21:54;6.00;99.90
32614;DHT22;19031;51.400;6.770;2023-02-22T06:24:21;6.00;99.90
32614;DHT22;19031;51.400;6.770;2023-02-22T06:26:57;6.00;99.90
32614;DHT22;19031;51.400;6.770;2023-02-22T06:29:28;6.00;99.90
32614;DHT22;19031;51.400;6.770;2023-02-22T06:31:54;6.10;99.90
32614;DHT22;19031;51.400;6.770;2023-02-22T06:34:20;6.00;99.90
32614;DHT22;19031;51.400;6.770;2023-02-22T06:36:49;6.10;99.90
32614;DHT22;19031;51.400;6.770;2023-02-22T06:39:15;6.10;99.90
32614;DHT22;19031;51.400;6.770;2023-02-22T06:41:42;6.00;99.90
32614;DHT22;19031;51.400;6.770;2023-02-22T06:44:08;6.00;99.90
32614;DHT22;19031;51.400;6.770;2023-02-22T06:46:35;6.00;99.90
32614;DHT22;19031;51.400;6.770;2023-02-22T06:49:01;6.00;99.90
32614;DHT22;19031;51.400;6.770;2023-02-22T06:51:27;6.00;99.90
32614;DHT22;19031;51.400;6.770;2023-02-22T06:53:53;6.00;99.90
32614;DHT22;19031;51.400;6.770;2023-02-22T06:56:19;6.00;99.90
32614;DHT22;19031;51.400;6.770;2023-02-22T06:58:45;6.00;99.90
32614;DHT22;19031;51.400;6.770;2023-02-22T07:01:13;6.00;99.90
32614;DHT22;19031;51.400;6.770;2023-02-22T07:03:40;6.00;99.90
32614;DHT22;19031;51.400;6.770;2023-02-22T07:06:07;6.00;99.90
32614;DHT22;19031;51.400;6.770;2023-02-22T07:08:32;6.00;99.90
32614;DHT22;19031;51.400;6.770;2023-02-22T07:10:58;6.00;99.90
32614;DHT22;19031;51.400;6.770;2023-02-22T07:13:24;6.10;99.90
32614;DHT22;19031;51.400;6.770;2023-02-22T07:15:49;6.10;99.90
32614;DHT22;19031;51.400;6.770;2023-02-22T07:18:15;6.00;99.90
32614;DHT22;19031;51.400;6.770;2023-02-22T07:20:41;6.00;99.90
32614;DHT22;19031;51.400;6.770;2023-02-22T07:23:07;6.00;99.90
32614;DHT22;19031;51.400;6.770;2023-02-22T07:25:33;6.10;99.90
32614;DHT22;19031;51.400;6.770;2023-02-22T07:27:59;6.10;99.90
32614;DHT22;19031;51.400;6.770;2023-02-22T07:30:27;6.20;99.90
32614;DHT22;19031;51.400;6.770;2023-02-22T07:33:02;6.30;99.90
32614;DHT22;19031;51.400;6.770;2023-02-22T07:35:29;6.20;99.90
32614;DHT22;19031;51.400;6.770;2023-02-22T07:37:55;6.20;99.90
32614;DHT22;19031;51.400;6.770;2023-02-22T07:40:22;6.20;99.90
32614;DHT22;19031;51.400;6.770;2023-02-22T07:45:16;6.40;99.90
32614;DHT22;19031;51.400;6.770;2023-02-22T07:47:42;6.40;99.90
32614;DHT22;19031;51.400;6.770;2023-02-22T07:50:09;6.50;99.90
32614;DHT22;19031;51.400;6.770;2023-02-22T07:52:37;6.60;99.90
32614;DHT22;19031;51.400;6.770;2023-02-22T07:55:02;6.50;99.90
32614;DHT22;19031;51.400;6.770;2023-02-22T07:57:28;6.70;99.90
32614;DHT22;19031;51.400;6.770;2023-02-22T07:59:53;6.70;99.90
32614;DHT22;19031;51.400;6.770;2023-02-22T08:02:19;6.80;99.90
32614;DHT22;19031;51.400;6.770;2023-02-22T08:04:45;6.90;99.90
32614;DHT22;19031;51.400;6.770;2023-02-22T08:07:11;7.00;99.90
32614;DHT22;19031;51.400;6.770;2023-02-22T08:09:36;7.10;99.90
32614;DHT22;19031;51.400;6.770;2023-02-22T08:12:02;7.10;99.90
32614;DHT22;19031;51.400;6.770;2023-02-22T08:14:30;7.20;99.90
32614;DHT22;19031;51.400;6.770;2023-02-22T08:16:59;7.30;99.90
32614;DHT22;19031;51.400;6.770;2023-02-22T08:19:24;7.40;99.90
32614;DHT22;19031;51.400;6.770;2023-02-22T08:21:53;7.50;99.90
32614;DHT22;19031;51.400;6.770;2023-02-22T08:24:18;7.60;99.90
32614;DHT22;19031;51.400;6.770;2023-02-22T08:26:50;7.80;99.90
32614;DHT22;19031;51.400;6.770;2023-02-22T08:29:16;7.90;99.90
32614;DHT22;19031;51.400;6.770;2023-02-22T08:31:41;7.90;99.90
32614;DHT22;19031;51.400;6.770;2023-02-22T08:34:14;7.90;99.90
32614;DHT22;19031;51.400;6.770;2023-02-22T08:36:41;8.20;99.90
32614;DHT22;19031;51.400;6.770;2023-02-22T08:39:10;8.30;99.90
32614;DHT22;19031;51.400;6.770;2023-02-22T08:41:38;8.40;99.90
32614;DHT22;19031;51.400;6.770;2023-02-22T08:44:04;8.60;99.90
32614;DHT22;19031;51.400;6.770;2023-02-22T08:46:29;8.80;99.90
32614;DHT22;19031;51.400;6.770;2023-02-22T08:48:55;9.00;99.90
32614;DHT22;19031;51.400;6.770;2023-02-22T08:51:20;9.10;99.90
32614;DHT22;19031;51.400;6.770;2023-02-22T08:53:46;9.30;99.90
32614;DHT22;19031;51.400;6.770;2023-02-22T08:56:15;9.40;99.90
32614;DHT22;19031;51.400;6.770;2023-02-22T08:58:40;9.50;99.90
32614;DHT22;19031;51.400;6.770;2023-02-22T09:01:06;9.60;99.90
32614;DHT22;19031;51.400;6.770;2023-02-22T09:03:34;9.70;99.90
32614;DHT22;19031;51.400;6.770;2023-02-22T09:06:03;9.80;99.90
32614;DHT22;19031;51.400;6.770;2023-02-22T09:08:29;9.90;99.90
32614;DHT22;19031;51.400;6.770;2023-02-22T09:10:54;9.90;99.90
32614;DHT22;19031;51.400;6.770;2023-02-22T09:13:20;10.10;99.90
32614;DHT22;19031;51.400;6.770;2023-02-22T09:15:45;10.10;99.90
32614;DHT22;19031;51.400;6.770;2023-02-22T09:18:12;10.30;99.90
32614;DHT22;19031;51.400;6.770;2023-02-22T09:20:42;10.20;99.90
32614;DHT22;19031;51.400;6.770;2023-02-22T09:23:10;10.30;99.90
32614;DHT22;19031;51.400;6.770;2023-02-22T09:25:36;10.40;99.90
32614;DHT22;19031;51.400;6.770;2023-02-22T09:28:05;10.50;99.90
32614;DHT22;19031;51.400;6.770;2023-02-22T09:30:34;10.70;99.90
32614;DHT22;19031;51.400;6.770;2023-02-22T09:33:03;10.70;99.90
32614;DHT22;19031;51.400;6.770;2023-02-22T09:35:30;10.90;99.90
32614;DHT22;19031;51.400;6.770;2023-02-22T09:37:59;10.90;99.90
32614;DHT22;19031;51.400;6.770;2023-02-22T09:40:26;11.10;99.90
32614;DHT22;19031;51.400;6.770;2023-02-22T09:48:35;11.40;99.90
32614;DHT22;19031;51.400;6.770;2023-02-22T09:51:10;11.60;99.90
32614;DHT22;19031;51.400;6.770;2023-02-22T09:53:43;11.70;99.90
32614;DHT22;19031;51.400;6.770;2023-02-22T09:56:11;11.70;99.90
32614;DHT22;19031;51.400;6.770;2023-02-22T09:58:41;11.80;99.90
32614;DHT22;19031;51.400;6.770;2023-02-22T10:04:04;12.00;99.90
32614;DHT22;19031;51.400;6.770;2023-02-22T10:06:33;12.10;99.90
32614;DHT22;19031;51.400;6.770;2023-02-22T10:09:03;12.10;99.90
32614;DHT22;19031;51.400;6.770;2023-02-22T10:17:03;12.50;97.80
32614;DHT22;19031;51.400;6.770;2023-02-22T10:25:14;12.60;94.20
32614;DHT22;19031;51.400;6.770;2023-02-22T10:30:38;12.70;95.00
32614;DHT22;19031;51.400;6.770;2023-02-22T10:33:41;12.90;93.80
32614;DHT22;19031;51.400;6.770;2023-02-22T10:36:19;13.20;89.70
32614;DHT22;19031;51.400;6.770;2023-02-22T10:38:54;13.80;74.80
32614;DHT22;19031;51.400;6.770;2023-02-22T10:41:32;14.70;59.50
32614;DHT22;19031;51.400;6.770;2023-02-22T10:43:59;15.40;14.10
32614;DHT22;19031;51.400;6.770;2023-02-22T10:46:27;16.00;2.00
32614;DHT22;19031;51.400;6.770;2023-02-22T10:48:56;16.70;1.00
32614;DHT22;19031;51.400;6.770;2023-02-22T10:51:27;17.30;1.00
32614;DHT22;19031;51.400;6.770;2023-02-22T10:56:46;18.70;99.90
32614;DHT22;19031;51.400;6.770;2023-02-22T10:59:29;18.90;99.90
32614;DHT22;19031;51.400;6.770;2023-02-22T11:01:56;18.90;99.90
32614;DHT22;19031;51.400;6.770;2023-02-22T11:04:22;18.80;99.90
32614;DHT22;19031;51.400;6.770;2023-02-22T11:07:17;18.60;99.90
32614;DHT22;19031;51.400;6.770;2023-02-22T11:09:54;18.50;99.90
32614;DHT22;19031;51.400;6.770;2023-02-22T11:14:50;19.40;99.90
32614;DHT22;19031;51.400;6.770;2023-02-22T11:17:22;19.90;99.90
32614;DHT22;19031;51.400;6.770;2023-02-22T11:19:54;20.30;99.70
32614;DHT22;19031;51.400;6.770;2023-02-22T11:22:24;19.90;99.90
32614;DHT22;19031;51.400;6.770;2023-02-22T11:25:01;19.80;99.90
32614;DHT22;19031;51.400;6.770;2023-02-22T11:27:42;19.70;99.90
32614;DHT22;19031;51.400;6.770;2023-02-22T11:32:55;18.90;99.90
32614;DHT22;19031;51.400;6.770;2023-02-22T11:38:09;18.10;99.90
32614;DHT22;19031;51.400;6.770;2023-02-22T11:40:35;17.90;99.90
32614;DHT22;19031;51.400;6.770;2023-02-22T11:43:08;17.40;99.90
32614;DHT22;19031;51.400;6.770;2023-02-22T11:45:37;17.30;1.00
32614;DHT22;19031;51.400;6.770;2023-02-22T11:48:05;17.20;1.00
32614;DHT22;19031;51.400;6.770;2023-02-22T11:50:39;17.20;1.00
32614;DHT22;19031;51.400;6.770;2023-02-22T12:06:39;16.80;1.00
32614;DHT22;19031;51.400;6.770;2023-02-22T12:09:24;16.80;1.00
32614;DHT22;19031;51.400;6.770;2023-02-22T12:17:06;16.60;1.00
32614;DHT22;19031;51.400;6.770;2023-02-22T12:19:42;16.50;1.00
32614;DHT22;19031;51.400;6.770;2023-02-22T12:22:50;16.50;1.00
32614;DHT22;19031;51.400;6.770;2023-02-22T12:25:20;16.40;1.00
32614;DHT22;19031;51.400;6.770;2023-02-22T12:27:49;16.50;1.00
32614;DHT22;19031;51.400;6.770;2023-02-22T12:30:35;16.30;1.00
32614;DHT22;19031;51.400;6.770;2023-02-22T12:33:10;16.40;1.00
32614;DHT22;19031;51.400;6.770;2023-02-22T12:35:39;16.60;1.00
32614;DHT22;19031;51.400;6.770;2023-02-22T12:41:06;16.80;1.00
32614;DHT22;19031;51.400;6.770;2023-02-22T12:43:40;16.80;1.00
32614;DHT22;19031;51.400;6.770;2023-02-22T12:51:16;16.70;1.00
32614;DHT22;19031;51.400;6.770;2023-02-22T12:53:55;16.60;1.00
32614;DHT22;19031;51.400;6.770;2023-02-22T12:56:40;16.60;1.00
32614;DHT22;19031;51.400;6.770;2023-02-22T13:02:16;16.60;1.00
32614;DHT22;19031;51.400;6.770;2023-02-22T13:04:43;16.30;1.00
32614;DHT22;19031;51.400;6.770;2023-02-22T13:09:53;16.30;1.00
32614;DHT22;19031;51.400;6.770;2023-02-22T13:15:18;16.40;1.00
32614;DHT22;19031;51.400;6.770;2023-02-22T13:20:21;16.10;1.00
32614;DHT22;19031;51.400;6.770;2023-02-22T13:30:43;16.20;1.00
32614;DHT22;19031;51.400;6.770;2023-02-22T13:36:28;16.30;1.00
32614;DHT22;19031;51.400;6.770;2023-02-22T13:44:55;16.40;1.00
32614;DHT22;19031;51.400;6.770;2023-02-22T13:53:15;16.50;1.00
32614;DHT22;19031;51.400;6.770;2023-02-22T13:55:46;16.30;1.00
32614;DHT22;19031;51.400;6.770;2023-02-22T13:58:13;16.30;1.00
32614;DHT22;19031;51.400;6.770;2023-02-22T14:00:51;16.50;1.00
32614;DHT22;19031;51.400;6.770;2023-02-22T14:05:52;16.50;1.00
32614;DHT22;19031;51.400;6.770;2023-02-22T14:11:00;16.80;1.00
32614;DHT22;19031;51.400;6.770;2023-02-22T14:13:26;16.80;1.00
32614;DHT22;19031;51.400;6.770;2023-02-22T14:18:25;16.80;1.00
32614;DHT22;19031;51.400;6.770;2023-02-22T14:21:04;16.70;1.00
32614;DHT22;19031;51.400;6.770;2023-02-22T14:24:04;16.60;1.00
32614;DHT22;19031;51.400;6.770;2023-02-22T14:26:35;16.40;1.00
32614;DHT22;19031;51.400;6.770;2023-02-22T14:31:58;16.20;1.00
32614;DHT22;19031;51.400;6.770;2023-02-22T14:37:11;15.90;1.00
32614;DHT22;19031;51.400;6.770;2023-02-22T14:39:49;16.00;1.00
32614;DHT22;19031;51.400;6.770;2023-02-22T14:42:32;15.90;1.00
32614;DHT22;19031;51.400;6.770;2023-02-22T14:45:08;15.90;1.00
32614;DHT22;19031;51.400;6.770;2023-02-22T14:50:19;15.80;1.00
32614;DHT22;19031;51.400;6.770;2023-02-22T14:53:33;15.80;1.00
32614;DHT22;19031;51.400;6.770;2023-02-22T14:56:15;15.80;1.00
32614;DHT22;19031;51.400;6.770;2023-02-22T15:01:37;15.70;1.00
32614;DHT22;19031;51.400;6.770;2023-02-22T15:04:30;15.70;7.90
32614;DHT22;19031;51.400;6.770;2023-02-22T15:06:57;15.70;10.70
32614;DHT22;19031;51.400;6.770;2023-02-22T15:09:28;15.70;11.30
32614;DHT22;19031;51.400;6.770;2023-02-22T15:14:32;15.80;7.20
32614;DHT22;19031;51.400;6.770;2023-02-22T15:17:11;15.80;5.40
32614;DHT22;19031;51.400;6.770;2023-02-22T15:19:39;15.80;14.70
32614;DHT22;19031;51.400;6.770;2023-02-22T15:22:18;15.60;15.10
32614;DHT22;19031;51.400;6.770;2023-02-22T15:24:53;15.50;20.00
32614;DHT22;19031;51.400;6.770;2023-02-22T15:27:21;15.60;21.40
32614;DHT22;19031;51.400;6.770;2023-02-22T15:29:46;15.50;19.20
32614;DHT22;19031;51.400;6.770;2023-02-22T15:34:54;15.60;14.10
32614;DHT22;19031;51.400;6.770;2023-02-22T15:37:24;15.40;13.40
32614;DHT22;19031;51.400;6.770;2023-02-22T15:39:50;15.50;23.00
32614;DHT22;19031;51.400;6.770;2023-02-22T15:42:24;15.20;25.50
32614;DHT22;19031;51.400;6.770;2023-02-22T15:44:52;15.20;24.40
32614;DHT22;19031;51.400;6.770;2023-02-22T15:49:45;14.90;36.00
32614;DHT22;19031;51.400;6.770;2023-02-22T15:52:23;14.70;44.10
32614;DHT22;19031;51.400;6.770;2023-02-22T15:54:51;14.60;47.70
32614;DHT22;19031;51.400;6.770;2023-02-22T15:57:19;14.50;46.70
32614;DHT22;19031;51.400;6.770;2023-02-22T15:59:49;14.40;54.00
32614;DHT22;19031;51.400;6.770;2023-02-22T16:02:52;14.40;53.90
32614;DHT22;19031;51.400;6.770;2023-02-22T16:05:34;14.40;55.20
32614;DHT22;19031;51.400;6.770;2023-02-22T16:08:01;14.40;57.20
32614;DHT22;19031;51.400;6.770;2023-02-22T16:10:31;14.30;58.10
32614;DHT22;19031;51.400;6.770;2023-02-22T16:13:28;14.30;61.60
32614;DHT22;19031;51.400;6.770;2023-02-22T16:16:01;14.20;63.30
32614;DHT22;19031;51.400;6.770;2023-02-22T16:18:33;14.00;65.20
32614;DHT22;19031;51.400;6.770;2023-02-22T16:21:11;14.00;67.20
32614;DHT22;19031;51.400;6.770;2023-02-22T16:23:54;14.00;69.40
32614;DHT22;19031;51.400;6.770;2023-02-22T16:26:28;14.00;74.70
32614;DHT22;19031;51.400;6.770;2023-02-22T16:31:30;13.80;79.50
32614;DHT22;19031;51.400;6.770;2023-02-22T16:33:58;13.70;80.70
32614;DHT22;19031;51.400;6.770;2023-02-22T16:36:45;13.70;83.20
32614;DHT22;19031;51.400;6.770;2023-02-22T16:41:56;13.80;86.20
32614;DHT22;19031;51.400;6.770;2023-02-22T16:44:22;13.60;86.40
32614;DHT22;19031;51.400;6.770;2023-02-22T16:46:52;13.60;88.40
32614;DHT22;19031;51.400;6.770;2023-02-22T16:49:19;13.50;87.70
32614;DHT22;19031;51.400;6.770;2023-02-22T16:51:59;13.40;90.80
32614;DHT22;19031;51.400;6.770;2023-02-22T16:54:28;13.30;90.00
32614;DHT22;19031;51.400;6.770;2023-02-22T16:56:58;13.40;90.70
32614;DHT22;19031;51.400;6.770;2023-02-22T16:59:27;13.30;91.00
32614;DHT22;19031;51.400;6.770;2023-02-22T17:01:55;13.10;93.00
32614;DHT22;19031;51.400;6.770;2023-02-22T17:04:24;13.10;92.80
32614;DHT22;19031;51.400;6.770;2023-02-22T17:06:50;12.90;94.90
32614;DHT22;19031;51.400;6.770;2023-02-22T17:09:16;12.80;95.30
32614;DHT22;19031;51.400;6.770;2023-02-22T17:11:45;12.70;96.10
32614;DHT22;19031;51.400;6.770;2023-02-22T17:14:17;12.70;96.00
32614;DHT22;19031;51.400;6.770;2023-02-22T17:16:43;12.60;96.30
32614;DHT22;19031;51.400;6.770;2023-02-22T17:19:19;12.60;97.10
32614;DHT22;19031;51.400;6.770;2023-02-22T17:21:48;12.50;96.70
32614;DHT22;19031;51.400;6.770;2023-02-22T17:24:20;12.40;97.50
32614;DHT22;19031;51.400;6.770;2023-02-22T17:26:50;12.30;98.50
32614;DHT22;19031;51.400;6.770;2023-02-22T17:29:17;12.40;98.40
32614;DHT22;19031;51.400;6.770;2023-02-22T17:31:43;12.30;98.80
32614;DHT22;19031;51.400;6.770;2023-02-22T17:34:09;12.30;99.10
32614;DHT22;19031;51.400;6.770;2023-02-22T17:36:35;12.20;99.90
32614;DHT22;19031;51.400;6.770;2023-02-22T17:39:04;12.10;99.90
32614;DHT22;19031;51.400;6.770;2023-02-22T17:41:30;12.20;99.90
32614;DHT22;19031;51.400;6.770;2023-02-22T17:43:59;12.10;99.90
32614;DHT22;19031;51.400;6.770;2023-02-22T17:46:24;12.10;99.90
32614;DHT22;19031;51.400;6.770;2023-02-22T17:48:50;12.10;99.90
32614;DHT22;19031;51.400;6.770;2023-02-22T17:51:21;12.00;99.90
32614;DHT22;19031;51.400;6.770;2023-02-22T17:53:47;11.90;99.90
32614;DHT22;19031;51.400;6.770;2023-02-22T17:56:15;11.90;99.90
32614;DHT22;19031;51.400;6.770;2023-02-22T17:58:43;11.80;99.90
32614;DHT22;19031;51.400;6.770;2023-02-22T18:01:35;11.70;99.90
32614;DHT22;19031;51.400;6.770;2023-02-22T18:04:01;11.70;99.90
32614;DHT22;19031;51.400;6.770;2023-02-22T18:06:29;11.80;99.90
32614;DHT22;19031;51.400;6.770;2023-02-22T18:08:58;11.70;99.90
32614;DHT22;19031;51.400;6.770;2023-02-22T18:11:25;11.70;99.90
32614;DHT22;19031;51.400;6.770;2023-02-22T18:13:55;11.50;99.90
32614;DHT22;19031;51.400;6.770;2023-02-22T18:16:22;11.50;99.90
32614;DHT22;19031;51.400;6.770;2023-02-22T18:18:49;11.40;99.90
32614;DHT22;19031;51.400;6.770;2023-02-22T18:21:15;11.40;99.90
32614;DHT22;19031;51.400;6.770;2023-02-22T18:23:41;11.40;99.90
32614;DHT22;19031;51.400;6.770;2023-02-22T18:26:07;11.40;99.90
32614;DHT22;19031;51.400;6.770;2023-02-22T18:28:32;11.40;99.90
32614;DHT22;19031;51.400;6.770;2023-02-22T18:30:58;11.40;99.90
32614;DHT22;19031;51.400;6.770;2023-02-22T18:33:24;11.30;99.90
32614;DHT22;19031;51.400;6.770;2023-02-22T18:35:50;11.30;99.90
32614;DHT22;19031;51.400;6.770;2023-02-22T18:38:20;11.30;99.90